Time;durP1;ratioP1;P1;durP2;ratioP2;P2;SDS_P1;SDS_P2;PMS_P1;PMS_P2;Temp;Humidity;BMP_temperature;BMP_pressure;BME280_temperature;BME280_humidity;BME280_pressure;Samples;Min_cycle;Max_cycle;Signal;HPM_P1;HPM_P2
2022/04/13 00:03:16;;;;;;;16.27;14.25;;;;;;;;;;10439947;28;20491;-80
2022/04/13 00:08:19;;;;;;;17.43;15.07;;;;;;;;;;10439247;28;20574;-79
2022/04/13 00:13:21;;;;;;;17.05;15.07;;;;;;;;;;10438627;28;20978;-80
2022/04/13 00:18:22;;;;;;;16.67;14.90;;;;;;;;;;10438932;28;20419;-78
2022/04/13 00:23:26;;;;;;;18.10;14.63;;;;;;;;;;10435122;28;20575;-80
2022/04/13 00:28:27;;;;;;;18.50;15.20;;;;;;;;;;10439260;28;21190;-80
2022/04/13 00:33:29;;;;;;;16.75;14.57;;;;;;;;;;10439347;28;20767;-78
2022/04/13 00:38:32;;;;;;;17.30;13.93;;;;;;;;;;10437949;28;20514;-79
2022/04/13 00:43:34;;;;;;;18.30;14.60;;;;;;;;;;10439562;28;20417;-80
2022/04/13 00:48:39;;;;;;;18.13;14.70;;;;;;;;;;10439045;28;20596;-80
2022/04/13 00:53:43;;;;;;;19.92;15.38;;;;;;;;;;10436180;28;20420;-79
2022/04/13 00:58:47;;;;;;;19.75;14.43;;;;;;;;;;10437459;28;20431;-79
2022/04/13 01:03:51;;;;;;;20.93;14.43;;;;;;;;;;10434063;28;20413;-79
2022/04/13 01:08:55;;;;;;;17.73;14.10;;;;;;;;;;10438224;28;20399;-79
2022/04/13 01:13:57;;;;;;;15.38;13.40;;;;;;;;;;10438352;28;20403;-79
2022/04/13 01:18:58;;;;;;;17.80;13.33;;;;;;;;;;10436540;28;20423;-79
2022/04/13 01:24:02;;;;;;;17.83;13.63;;;;;;;;;;10438583;28;20439;-78
2022/04/13 01:29:05;;;;;;;19.27;13.65;;;;;;;;;;10434023;28;20396;-80
2022/04/13 01:34:08;;;;;;;17.42;13.98;;;;;;;;;;10437116;28;20432;-78
2022/04/13 01:39:11;;;;;;;17.13;13.88;;;;;;;;;;10437529;28;20427;-79
2022/04/13 01:44:15;;;;;;;16.02;13.45;;;;;;;;;;10439701;28;20478;-79
2022/04/13 01:49:16;;;;;;;20.87;15.30;;;;;;;;;;10443951;28;20423;-80
2022/04/13 01:54:20;;;;;;;19.10;15.43;;;;;;;;;;10445114;28;20407;-80
2022/04/13 01:59:21;;;;;;;18.85;14.93;;;;;;;;;;10445160;28;20518;-79
2022/04/13 02:04:25;;;;;;;24.63;16.33;;;;;;;;;;10445298;28;20486;-80
2022/04/13 02:09:29;;;;;;;20.03;15.07;;;;;;;;;;10446013;28;20966;-80
2022/04/13 02:14:31;;;;;;;22.08;15.57;;;;;;;;;;10444996;28;20404;-80
2022/04/13 02:19:33;;;;;;;20.13;15.50;;;;;;;;;;10444866;28;20511;-80
2022/04/13 02:24:37;;;;;;;24.30;16.98;;;;;;;;;;10445884;28;20403;-78
2022/04/13 02:29:39;;;;;;;21.10;15.95;;;;;;;;;;10445022;28;20406;-78
2022/04/13 02:34:41;;;;;;;20.00;16.70;;;;;;;;;;10444940;28;20407;-79
2022/04/13 02:39:45;;;;;;;20.00;15.68;;;;;;;;;;10444689;28;20427;-80
2022/04/13 02:44:47;;;;;;;20.05;16.00;;;;;;;;;;10443816;28;20403;-79
2022/04/13 02:49:49;;;;;;;20.35;16.45;;;;;;;;;;10443284;28;20404;-79
2022/04/13 02:54:52;;;;;;;18.65;15.63;;;;;;;;;;10444236;28;20479;-80
2022/04/13 02:59:54;;;;;;;21.50;16.40;;;;;;;;;;10443499;28;20799;-80
2022/04/13 03:04:55;;;;;;;21.15;15.63;;;;;;;;;;10442915;28;20503;-79
2022/04/13 03:09:59;;;;;;;22.47;15.60;;;;;;;;;;10444119;28;20400;-80
2022/04/13 03:15:01;;;;;;;19.63;15.77;;;;;;;;;;10443011;28;20490;-79
2022/04/13 03:20:04;;;;;;;19.25;15.35;;;;;;;;;;10441958;28;20434;-79
2022/04/13 03:25:08;;;;;;;19.98;15.82;;;;;;;;;;10443174;28;20511;-78
2022/04/13 03:30:13;;;;;;;21.53;15.00;;;;;;;;;;10434614;28;20421;-79
2022/04/13 03:35:15;;;;;;;20.95;16.48;;;;;;;;;;10439202;28;20399;-79
2022/04/13 03:40:18;;;;;;;21.90;16.27;;;;;;;;;;10441029;28;20425;-79
2022/04/13 03:45:20;;;;;;;22.60;16.60;;;;;;;;;;10440449;28;20474;-80
2022/04/13 03:50:22;;;;;;;21.83;16.45;;;;;;;;;;10440706;28;20443;-80
2022/04/13 03:55:25;;;;;;;23.20;17.15;;;;;;;;;;10441774;28;20488;-79
2022/04/13 04:00:27;;;;;;;25.52;17.17;;;;;;;;;;10441863;28;20428;-80
2022/04/13 04:05:29;;;;;;;20.92;16.08;;;;;;;;;;10429398;28;20420;-79
2022/04/13 04:10:32;;;;;;;20.92;16.58;;;;;;;;;;10438960;28;20933;-79
2022/04/13 04:15:34;;;;;;;21.55;16.15;;;;;;;;;;10439626;28;20803;-79
2022/04/13 04:20:36;;;;;;;21.92;15.80;;;;;;;;;;10438312;28;20852;-79
2022/04/13 04:25:39;;;;;;;18.83;15.53;;;;;;;;;;10439435;28;20849;-79
2022/04/13 04:30:42;;;;;;;19.10;15.00;;;;;;;;;;10439409;28;20490;-79
2022/04/13 04:35:47;;;;;;;21.42;16.40;;;;;;;;;;10438501;28;20542;-80
2022/04/13 04:40:50;;;;;;;22.73;16.90;;;;;;;;;;10438515;28;20419;-78
2022/04/13 04:45:52;;;;;;;20.45;17.25;;;;;;;;;;10438206;28;20491;-78
2022/04/13 04:50:54;;;;;;;22.90;17.83;;;;;;;;;;10438281;28;20929;-79
2022/04/13 04:55:57;;;;;;;22.25;17.20;;;;;;;;;;10434797;28;20408;-78
2022/04/13 05:00:58;;;;;;;20.30;16.40;;;;;;;;;;10438394;28;20515;-79
2022/04/13 05:06:00;;;;;;;21.60;16.83;;;;;;;;;;10437990;28;20414;-77
2022/04/13 05:11:04;;;;;;;24.90;17.48;;;;;;;;;;10437414;28;20434;-79
2022/04/13 05:16:06;;;;;;;21.15;17.98;;;;;;;;;;10421968;28;20420;-78
2022/04/13 05:21:08;;;;;;;19.73;16.95;;;;;;;;;;10421735;28;20907;-78
2022/04/13 05:26:12;;;;;;;21.58;17.65;;;;;;;;;;10433928;28;20492;-80
2022/04/13 05:31:13;;;;;;;23.48;17.30;;;;;;;;;;10428083;28;20836;-81
2022/04/13 05:36:15;;;;;;;24.58;17.50;;;;;;;;;;10430493;28;20441;-81
2022/04/13 05:41:18;;;;;;;22.13;17.83;;;;;;;;;;10425231;28;20507;-81
2022/04/13 05:46:21;;;;;;;23.92;17.63;;;;;;;;;;10426039;28;20417;-80
2022/04/13 05:51:24;;;;;;;26.13;18.15;;;;;;;;;;10437049;28;20403;-80
2022/04/13 05:56:27;;;;;;;20.98;17.30;;;;;;;;;;10434963;28;20415;-81
2022/04/13 06:01:30;;;;;;;20.57;16.80;;;;;;;;;;10430556;28;20467;-81
2022/04/13 06:06:32;;;;;;;20.85;16.27;;;;;;;;;;10436263;28;20419;-81
2022/04/13 06:11:35;;;;;;;19.63;15.15;;;;;;;;;;10440439;28;20502;-80
2022/04/13 06:16:37;;;;;;;19.65;15.32;;;;;;;;;;10432653;28;20498;-80
2022/04/13 06:21:39;;;;;;;19.93;14.60;;;;;;;;;;10443942;28;20434;-81
2022/04/13 06:26:42;;;;;;;19.52;13.93;;;;;;;;;;10443729;28;20798;-80
2022/04/13 06:31:44;;;;;;;17.15;13.02;;;;;;;;;;10444167;28;20414;-81
2022/04/13 06:36:45;;;;;;;18.00;12.98;;;;;;;;;;10443725;28;20934;-80
2022/04/13 06:41:48;;;;;;;21.10;13.70;;;;;;;;;;10441976;28;20530;-81
2022/04/13 06:46:50;;;;;;;20.63;13.70;;;;;;;;;;10441632;28;20400;-80
2022/04/13 06:51:52;;;;;;;17.48;12.55;;;;;;;;;;10442701;28;20477;-80
2022/04/13 06:56:56;;;;;;;17.87;12.67;;;;;;;;;;10442169;28;20483;-81
2022/04/13 07:01:58;;;;;;;15.17;11.73;;;;;;;;;;10433400;28;20484;-81
2022/04/13 07:07:00;;;;;;;17.85;13.25;;;;;;;;;;10437924;28;20404;-81
2022/04/13 07:12:03;;;;;;;19.33;14.97;;;;;;;;;;10442028;28;20503;-80
2022/04/13 07:17:05;;;;;;;19.00;16.08;;;;;;;;;;10442862;28;20399;-80
2022/04/13 07:22:07;;;;;;;19.67;16.13;;;;;;;;;;10441271;28;20514;-81
2022/04/13 07:27:10;;;;;;;18.45;15.25;;;;;;;;;;10436666;28;20407;-82
2022/04/13 07:32:12;;;;;;;20.98;15.43;;;;;;;;;;10442105;28;20497;-81
2022/04/13 07:37:14;;;;;;;21.48;15.40;;;;;;;;;;10441513;28;20412;-81
2022/04/13 07:42:22;;;;;;;18.00;15.20;;;;;;;;;;10440524;28;20423;-81
2022/04/13 07:47:24;;;;;;;21.23;15.60;;;;;;;;;;10441245;28;20400;-80
2022/04/13 07:52:26;;;;;;;18.77;14.40;;;;;;;;;;10440104;28;20431;-81
2022/04/13 07:57:29;;;;;;;17.10;14.45;;;;;;;;;;10438511;28;20411;-80
2022/04/13 08:02:33;;;;;;;16.35;12.95;;;;;;;;;;10420791;28;20528;-81
2022/04/13 08:07:36;;;;;;;18.60;13.68;;;;;;;;;;10419048;28;20515;-80
2022/04/13 08:12:40;;;;;;;19.23;12.80;;;;;;;;;;10416643;28;20410;-80
2022/04/13 08:17:43;;;;;;;17.60;12.83;;;;;;;;;;10433946;28;20424;-81
2022/04/13 08:22:47;;;;;;;16.83;12.60;;;;;;;;;;10423721;28;20437;-81
2022/04/13 08:27:50;;;;;;;18.30;13.90;;;;;;;;;;10436129;28;20408;-80
2022/04/13 08:32:52;;;;;;;19.17;12.93;;;;;;;;;;10434586;28;20486;-82
2022/04/13 08:37:54;;;;;;;18.00;13.57;;;;;;;;;;10438470;28;20498;-80
2022/04/13 08:43:05;;;;;;;14.90;12.00;;;;;;;;;;10439543;28;20510;-80
2022/04/13 08:48:11;;;;;;;15.52;11.68;;;;;;;;;;10436101;28;20507;-80
2022/04/13 08:53:18;;;;;;;15.27;11.63;;;;;;;;;;10440397;28;20458;-80
2022/04/13 08:58:29;;;;;;;17.50;10.63;;;;;;;;;;10447482;28;20403;-80
2022/04/13 09:03:38;;;;;;;13.93;10.13;;;;;;;;;;10442708;28;21289;-81
2022/04/13 09:08:48;;;;;;;15.93;11.57;;;;;;;;;;10437961;28;20413;-81
2022/04/13 09:13:53;;;;;;;13.53;9.13;;;;;;;;;;10427945;28;20427;-80
2022/04/13 09:18:55;;;;;;;12.63;10.03;;;;;;;;;;10427905;28;20407;-81
2022/04/13 09:23:57;;;;;;;15.18;10.25;;;;;;;;;;10432815;28;20400;-81
2022/04/13 09:29:00;;;;;;;13.40;9.03;;;;;;;;;;10446764;28;20436;-81
2022/04/13 09:34:02;;;;;;;10.35;7.97;;;;;;;;;;10439543;28;20404;-82
2022/04/13 09:39:04;;;;;;;14.32;9.52;;;;;;;;;;10441077;28;20408;-81
2022/04/13 09:44:14;;;;;;;12.23;8.75;;;;;;;;;;10432836;28;20401;-80
2022/04/13 09:49:17;;;;;;;12.43;8.43;;;;;;;;;;10438539;28;20411;-81
2022/04/13 09:54:24;;;;;;;11.27;8.68;;;;;;;;;;10440274;28;20426;-81
2022/04/13 09:59:28;;;;;;;11.77;8.00;;;;;;;;;;10444190;28;20474;-81
2022/04/13 10:04:32;;;;;;;11.43;7.57;;;;;;;;;;10440320;28;20403;-82
2022/04/13 10:09:34;;;;;;;11.52;7.10;;;;;;;;;;10442258;28;20396;-81
2022/04/13 10:14:37;;;;;;;12.07;7.90;;;;;;;;;;10442949;28;20411;-81
2022/04/13 10:19:40;;;;;;;11.10;8.32;;;;;;;;;;10435874;28;20970;-81
2022/04/13 10:24:42;;;;;;;11.13;8.70;;;;;;;;;;10443302;28;20540;-82
2022/04/13 10:29:47;;;;;;;10.97;9.00;;;;;;;;;;10444360;28;20403;-81
2022/04/13 10:34:50;;;;;;;12.65;8.27;;;;;;;;;;10442159;28;20436;-81
2022/04/13 10:39:53;;;;;;;8.27;6.28;;;;;;;;;;10441789;28;20979;-80
2022/04/13 10:45:03;;;;;;;11.52;7.97;;;;;;;;;;10439182;28;20490;-81
2022/04/13 10:50:07;;;;;;;11.45;8.43;;;;;;;;;;10444057;28;20404;-82
2022/04/13 10:55:12;;;;;;;10.40;7.78;;;;;;;;;;10436735;28;21132;-80
2022/04/13 11:00:18;;;;;;;12.18;9.30;;;;;;;;;;10441836;28;20986;-81
2022/04/13 11:05:21;;;;;;;11.50;9.00;;;;;;;;;;10441062;28;20403;-81
2022/04/13 11:10:24;;;;;;;13.27;8.75;;;;;;;;;;10438709;28;20415;-81
2022/04/13 11:15:40;;;;;;;11.40;8.57;;;;;;;;;;10443060;28;20408;-81
2022/04/13 11:21:04;;;;;;;12.43;8.68;;;;;;;;;;10444405;28;20504;-80
2022/04/13 11:26:06;;;;;;;13.27;9.23;;;;;;;;;;10439475;28;20476;-81
2022/04/13 11:31:10;;;;;;;11.52;8.85;;;;;;;;;;10440553;28;20414;-81
2022/04/13 11:36:12;;;;;;;14.32;8.50;;;;;;;;;;10438831;28;20418;-81
2022/04/13 11:41:14;;;;;;;13.20;8.68;;;;;;;;;;10437934;28;20514;-80
2022/04/13 11:46:39;;;;;;;12.35;9.07;;;;;;;;;;10428214;28;20490;-80
2022/04/13 11:51:40;;;;;;;14.02;9.35;;;;;;;;;;10436376;28;20456;-81
2022/04/13 11:56:50;;;;;;;15.17;9.43;;;;;;;;;;10436467;28;20490;-80
2022/04/13 12:01:55;;;;;;;13.67;9.00;;;;;;;;;;10433308;28;20511;-80
2022/04/13 12:06:57;;;;;;;13.75;9.18;;;;;;;;;;10432087;28;20410;-80
2022/04/13 12:12:02;;;;;;;15.17;10.23;;;;;;;;;;10430275;28;20438;-80
2022/04/13 12:17:05;;;;;;;19.98;12.52;;;;;;;;;;10432995;28;20514;-80
2022/04/13 12:22:15;;;;;;;16.45;10.57;;;;;;;;;;10432530;28;20427;-81
2022/04/13 12:27:18;;;;;;;16.60;10.13;;;;;;;;;;10434644;28;20399;-81
2022/04/13 12:32:21;;;;;;;17.90;11.30;;;;;;;;;;10422928;28;20415;-81
2022/04/13 12:37:23;;;;;;;16.80;10.80;;;;;;;;;;10419735;28;20415;-80
2022/04/13 12:42:26;;;;;;;16.10;10.27;;;;;;;;;;10422669;28;20519;-81
2022/04/13 12:47:29;;;;;;;15.88;9.93;;;;;;;;;;10422166;28;21943;-81
2022/04/13 12:52:31;;;;;;;18.33;11.43;;;;;;;;;;10420547;28;20447;-81
2022/04/13 12:57:33;;;;;;;14.93;10.10;;;;;;;;;;10422531;28;20907;-81
2022/04/13 13:02:37;;;;;;;19.17;12.32;;;;;;;;;;10425029;28;20431;-81
2022/04/13 13:07:39;;;;;;;18.15;11.60;;;;;;;;;;10417543;28;20412;-81
2022/04/13 13:12:41;;;;;;;17.58;11.45;;;;;;;;;;10416505;28;20400;-81
2022/04/13 13:17:44;;;;;;;17.87;9.90;;;;;;;;;;10420049;28;20427;-81
2022/04/13 13:22:47;;;;;;;15.45;10.80;;;;;;;;;;10424208;28;20428;-80
2022/04/13 13:27:50;;;;;;;17.10;11.15;;;;;;;;;;10426315;28;20413;-81
2022/04/13 13:32:55;;;;;;;19.23;11.35;;;;;;;;;;10429314;28;20418;-81
2022/04/13 13:38:07;;;;;;;15.90;10.70;;;;;;;;;;10428046;28;20414;-81
2022/04/13 13:43:10;;;;;;;16.88;10.93;;;;;;;;;;10432977;28;20428;-80
2022/04/13 13:48:21;;;;;;;15.65;10.43;;;;;;;;;;10442370;28;20429;-80
2022/04/13 13:53:27;;;;;;;17.07;10.80;;;;;;;;;;10444405;28;20443;-81
2022/04/13 13:58:29;;;;;;;16.00;11.00;;;;;;;;;;10445912;28;21180;-80
2022/04/13 14:03:32;;;;;;;17.13;10.25;;;;;;;;;;10443187;28;20899;-80
2022/04/13 14:08:34;;;;;;;16.73;10.55;;;;;;;;;;10444456;28;20404;-81
2022/04/13 14:13:35;;;;;;;13.88;9.55;;;;;;;;;;10444723;28;20426;-81
2022/04/13 14:18:39;;;;;;;14.35;10.35;;;;;;;;;;10439203;28;20411;-81
2022/04/13 14:23:41;;;;;;;16.27;11.35;;;;;;;;;;10443975;28;20424;-80
2022/04/13 14:28:47;;;;;;;15.73;10.77;;;;;;;;;;10428055;28;20768;-80
2022/04/13 14:33:51;;;;;;;15.93;10.00;;;;;;;;;;10426534;28;20476;-80
2022/04/13 14:38:54;;;;;;;15.37;10.33;;;;;;;;;;10435471;28;20434;-81
2022/04/13 14:43:55;;;;;;;15.50;9.82;;;;;;;;;;10427251;28;20552;-80
2022/04/13 14:48:59;;;;;;;12.40;9.23;;;;;;;;;;10420482;28;20775;-80
2022/04/13 14:54:00;;;;;;;13.03;8.93;;;;;;;;;;10437770;28;20415;-80
2022/04/13 14:59:02;;;;;;;11.83;8.67;;;;;;;;;;10430628;28;21034;-79
2022/04/13 15:04:06;;;;;;;11.13;8.30;;;;;;;;;;10434521;28;20424;-80
2022/04/13 15:09:07;;;;;;;12.10;8.65;;;;;;;;;;10433162;28;20412;-80
2022/04/13 15:14:11;;;;;;;12.88;8.90;;;;;;;;;;10433516;28;20990;-81
2022/04/13 15:19:17;;;;;;;14.18;9.13;;;;;;;;;;10424013;28;20423;-81
2022/04/13 15:24:19;;;;;;;10.77;7.95;;;;;;;;;;10428271;28;21247;-80
2022/04/13 15:29:21;;;;;;;13.20;9.07;;;;;;;;;;10434186;28;20843;-80
2022/04/13 15:34:24;;;;;;;11.30;9.10;;;;;;;;;;10425894;28;20512;-80
2022/04/13 15:39:28;;;;;;;12.47;8.90;;;;;;;;;;10425749;28;20407;-81
2022/04/13 15:44:31;;;;;;;15.10;8.87;;;;;;;;;;10434652;28;20787;-80
2022/04/13 15:49:34;;;;;;;13.75;8.93;;;;;;;;;;10431811;28;21034;-80
2022/04/13 15:54:36;;;;;;;12.93;9.80;;;;;;;;;;10431243;28;20407;-81
2022/04/13 15:59:38;;;;;;;12.70;9.70;;;;;;;;;;10431408;28;20419;-81
2022/04/13 16:04:41;;;;;;;14.43;9.35;;;;;;;;;;10430281;28;20609;-81
2022/04/13 16:09:44;;;;;;;16.45;10.10;;;;;;;;;;10435211;28;20416;-80
2022/04/13 16:14:46;;;;;;;17.20;9.68;;;;;;;;;;10430754;28;20490;-80
2022/04/13 16:19:49;;;;;;;14.35;10.20;;;;;;;;;;10427920;28;20420;-80
2022/04/13 16:24:51;;;;;;;14.77;9.87;;;;;;;;;;10429470;28;20463;-80
2022/04/13 16:29:52;;;;;;;15.03;9.77;;;;;;;;;;10435342;28;20443;-80
2022/04/13 16:34:57;;;;;;;13.20;9.32;;;;;;;;;;10419441;28;20958;-80
2022/04/13 16:39:59;;;;;;;15.02;9.55;;;;;;;;;;10418278;28;20423;-79
2022/04/13 16:45:01;;;;;;;17.13;10.10;;;;;;;;;;10414678;28;20435;-80
2022/04/13 16:50:06;;;;;;;13.52;9.63;;;;;;;;;;10415315;28;20505;-80
2022/04/13 16:55:09;;;;;;;16.23;10.40;;;;;;;;;;10411938;28;20431;-81
2022/04/13 17:00:12;;;;;;;15.43;9.95;;;;;;;;;;10414954;28;20429;-80
2022/04/13 17:05:15;;;;;;;10.37;6.47;;;;;;;;;;10416179;28;20426;-81
2022/04/13 17:10:17;;;;;;;7.30;4.70;;;;;;;;;;10415774;28;20415;-80
2022/04/13 17:15:18;;;;;;;5.95;4.13;;;;;;;;;;10401589;28;20422;-81
2022/04/13 17:20:23;;;;;;;8.30;4.17;;;;;;;;;;10422991;28;20438;-80
2022/04/13 17:25:25;;;;;;;7.05;4.38;;;;;;;;;;10424818;28;20423;-81
2022/04/13 17:30:26;;;;;;;8.87;4.53;;;;;;;;;;10433209;28;20415;-81
2022/04/13 17:35:30;;;;;;;6.90;4.10;;;;;;;;;;10423008;28;20436;-80
2022/04/13 17:40:35;;;;;;;8.13;4.47;;;;;;;;;;10422105;28;20419;-81
2022/04/13 17:45:38;;;;;;;8.80;5.10;;;;;;;;;;10435487;28;20423;-81
2022/04/13 17:50:41;;;;;;;9.30;5.33;;;;;;;;;;10439809;28;20499;-81
2022/04/13 17:55:45;;;;;;;7.85;4.78;;;;;;;;;;10441279;28;20462;-80
2022/04/13 18:00:48;;;;;;;6.07;4.10;;;;;;;;;;10426587;28;21085;-82
2022/04/13 18:05:51;;;;;;;13.50;4.72;;;;;;;;;;10438603;28;20439;-82
2022/04/13 18:10:56;;;;;;;8.50;5.03;;;;;;;;;;10422428;28;20638;-81
2022/04/13 18:15:58;;;;;;;6.55;4.65;;;;;;;;;;10430339;28;20771;-82
2022/04/13 18:21:01;;;;;;;8.95;4.50;;;;;;;;;;10427096;28;20405;-80
2022/04/13 18:26:03;;;;;;;7.32;5.00;;;;;;;;;;10425630;28;20503;-80
2022/04/13 18:31:05;;;;;;;7.07;6.07;;;;;;;;;;10428506;28;20400;-81
2022/04/13 18:36:09;;;;;;;9.30;7.90;;;;;;;;;;10423855;28;20399;-81
2022/04/13 18:41:11;;;;;;;20.92;16.45;;;;;;;;;;10425181;28;20429;-79
2022/04/13 18:46:13;;;;;;;24.23;19.57;;;;;;;;;;10425198;28;21079;-80
2022/04/13 18:51:16;;;;;;;30.15;23.92;;;;;;;;;;10427260;28;21167;-81
2022/04/13 18:56:18;;;;;;;32.85;23.63;;;;;;;;;;10420563;28;20422;-80
2022/04/13 19:01:20;;;;;;;26.67;20.03;;;;;;;;;;10421945;28;20411;-80
2022/04/13 19:06:23;;;;;;;20.20;14.48;;;;;;;;;;10425506;28;20422;-81
2022/04/13 19:11:27;;;;;;;15.87;10.40;;;;;;;;;;10422291;28;20415;-81
2022/04/13 19:16:29;;;;;;;17.13;11.88;;;;;;;;;;10414320;28;20434;-81
2022/04/13 19:21:33;;;;;;;14.87;10.40;;;;;;;;;;10410430;28;20507;-81
2022/04/13 19:26:35;;;;;;;16.83;10.15;;;;;;;;;;10412016;28;20431;-81
2022/04/13 19:31:37;;;;;;;14.98;9.40;;;;;;;;;;10416102;28;20416;-79
2022/04/13 19:36:41;;;;;;;15.30;9.23;;;;;;;;;;10415390;28;20424;-79
2022/04/13 19:41:43;;;;;;;14.57;8.80;;;;;;;;;;10411592;28;20512;-80
2022/04/13 19:46:44;;;;;;;13.93;8.32;;;;;;;;;;10409932;28;20414;-80
2022/04/13 19:51:48;;;;;;;13.32;9.13;;;;;;;;;;10412883;28;20415;-81
2022/04/13 19:56:49;;;;;;;13.18;8.77;;;;;;;;;;10414619;28;20422;-79
2022/04/13 20:01:51;;;;;;;14.20;9.80;;;;;;;;;;10416675;28;20427;-79
2022/04/13 20:06:54;;;;;;;11.15;8.30;;;;;;;;;;10415209;28;20415;-81
2022/04/13 20:11:57;;;;;;;13.50;9.03;;;;;;;;;;10418007;28;20500;-80
2022/04/13 20:17:01;;;;;;;13.77;9.27;;;;;;;;;;10414062;28;20420;-80
2022/04/13 20:22:04;;;;;;;15.00;9.30;;;;;;;;;;10418971;28;20473;-81
2022/04/13 20:27:06;;;;;;;12.30;9.00;;;;;;;;;;10417327;28;20540;-80
2022/04/13 20:32:09;;;;;;;16.85;9.65;;;;;;;;;;10428831;28;20562;-80
2022/04/13 20:37:12;;;;;;;14.93;10.70;;;;;;;;;;10430601;28;21022;-80
2022/04/13 20:42:14;;;;;;;14.73;10.47;;;;;;;;;;10428245;28;20415;-81
2022/04/13 20:47:16;;;;;;;15.38;11.40;;;;;;;;;;10435981;28;20410;-80
2022/04/13 20:52:19;;;;;;;14.83;11.53;;;;;;;;;;10438197;28;20395;-79
2022/04/13 20:57:21;;;;;;;17.37;11.93;;;;;;;;;;10438449;28;20560;-79
2022/04/13 21:02:23;;;;;;;18.58;13.57;;;;;;;;;;10432435;28;20507;-80
2022/04/13 21:07:26;;;;;;;16.50;13.07;;;;;;;;;;10437835;28;20490;-80
2022/04/13 21:12:28;;;;;;;18.83;14.23;;;;;;;;;;10438482;28;20444;-80
2022/04/13 21:17:31;;;;;;;18.10;13.40;;;;;;;;;;10437401;28;20507;-80
2022/04/13 21:22:34;;;;;;;19.15;13.85;;;;;;;;;;10431208;28;20415;-78
2022/04/13 21:27:36;;;;;;;22.02;15.02;;;;;;;;;;10433408;28;20471;-80
2022/04/13 21:32:38;;;;;;;20.55;15.00;;;;;;;;;;10432660;28;20783;-80
2022/04/13 21:37:41;;;;;;;20.07;15.03;;;;;;;;;;10435025;28;20411;-81
2022/04/13 21:42:43;;;;;;;21.83;16.13;;;;;;;;;;10432039;28;20514;-79
2022/04/13 21:47:45;;;;;;;25.60;17.48;;;;;;;;;;10427841;28;21085;-79
2022/04/13 21:52:48;;;;;;;24.63;17.17;;;;;;;;;;10436546;28;20416;-80
2022/04/13 21:57:52;;;;;;;23.90;18.43;;;;;;;;;;10437120;28;20416;-80
2022/04/13 22:02:54;;;;;;;25.95;19.73;;;;;;;;;;10433576;28;20923;-80
2022/04/13 22:07:57;;;;;;;30.07;21.77;;;;;;;;;;10438337;28;20596;-79
2022/04/13 22:12:59;;;;;;;27.77;21.88;;;;;;;;;;10439883;28;20775;-79
2022/04/13 22:18:01;;;;;;;30.02;22.83;;;;;;;;;;10438673;28;20466;-79
2022/04/13 22:23:05;;;;;;;33.00;23.63;;;;;;;;;;10432522;28;20430;-80
2022/04/13 22:28:08;;;;;;;32.03;23.05;;;;;;;;;;10436019;28;20416;-79
2022/04/13 22:33:10;;;;;;;30.67;23.27;;;;;;;;;;10433826;28;20848;-79
2022/04/13 22:38:13;;;;;;;30.95;23.77;;;;;;;;;;10434817;28;20887;-79
2022/04/13 22:43:15;;;;;;;29.38;23.15;;;;;;;;;;10433576;28;20852;-80
2022/04/13 22:48:17;;;;;;;28.95;21.95;;;;;;;;;;10439978;28;20479;-80
2022/04/13 22:53:21;;;;;;;31.50;22.98;;;;;;;;;;10439078;28;20911;-80
2022/04/13 22:58:23;;;;;;;28.40;21.47;;;;;;;;;;10439276;28;20400;-79
2022/04/13 23:03:25;;;;;;;28.35;22.70;;;;;;;;;;10433493;28;20929;-81
2022/04/13 23:08:28;;;;;;;32.15;23.30;;;;;;;;;;10438162;28;20411;-79
2022/04/13 23:13:30;;;;;;;30.40;22.30;;;;;;;;;;10438384;28;20410;-81
2022/04/13 23:18:32;;;;;;;29.52;22.88;;;;;;;;;;10437494;28;20408;-79
2022/04/13 23:23:35;;;;;;;29.17;22.73;;;;;;;;;;10432510;28;20423;-81
2022/04/13 23:28:37;;;;;;;29.53;22.37;;;;;;;;;;10437698;28;20572;-80
2022/04/13 23:33:38;;;;;;;30.25;22.50;;;;;;;;;;10433997;28;20909;-80
2022/04/13 23:38:41;;;;;;;30.60;22.67;;;;;;;;;;10435380;28;20419;-78
2022/04/13 23:43:43;;;;;;;30.80;22.13;;;;;;;;;;10431212;28;20819;-80
2022/04/13 23:48:45;;;;;;;31.75;23.15;;;;;;;;;;10430022;28;20515;-79
2022/04/13 23:53:48;;;;;;;28.97;22.67;;;;;;;;;;10436653;28;20864;-80
2022/04/13 23:58:50;;;;;;;30.35;23.13;;;;;;;;;;10435328;28;20418;-80
